Chitral Weather



Chitral's Current Weather

Temprature 19.25o clear sky

clear sky

Rain: 0 %

Min Temprature19.25o
Max Temprature19.25o
Humidity31
Wind Speed1.01 m/h
Sun Rise05:01:49
Sun Set19:17:50
Current Time: 24-May-2022 08:01:54
Lat/Lon: 35.8462, 71.7858




Chitral's Geo Location



Chitral's Weather Forecast

Time Overall Temp Min Temp Max Temp Humidity Wind Speed Rain
24-May-2022 (Tue)
11:00:00 clear sky 20.370 20.370 22.620 29 2.92 m/h 0 %
14:00:00 clear sky 23.100 23.100 25.030 26 3.31 m/h 0 %
17:00:00 clear sky 25.300 25.300 25.300 25 3.86 m/h 0 %
20:00:00 clear sky 21.580 21.580 21.580 46 2.79 m/h 0 %
23:00:00 clear sky 20.080 20.080 20.080 53 0.5 m/h 0 %
25-May-2022 (Wed)
02:00:00 clear sky 19.220 19.220 19.220 49 0.41 m/h 0 %
05:00:00 clear sky 18.720 18.720 18.720 40 1.59 m/h 0 %
08:00:00 clear sky 24.300 24.300 24.300 21 1.75 m/h 0 %
11:00:00 clear sky 27.900 27.900 27.900 15 1.36 m/h 0 %
14:00:00 clear sky 29.910 29.910 29.910 15 2.68 m/h 0 %
17:00:00 few clouds 29.350 29.350 29.350 20 2.99 m/h 0 %
20:00:00 scattered clouds 25.480 25.480 25.480 37 2.37 m/h 0 %
23:00:00 few clouds 23.610 23.610 23.610 40 1.36 m/h 0 %
26-May-2022 (Thu)
02:00:00 clear sky 21.880 21.880 21.880 36 2.88 m/h 0 %
05:00:00 clear sky 20.140 20.140 20.140 34 3.4 m/h 0 %
08:00:00 clear sky 25.090 25.090 25.090 19 3.02 m/h 0 %
11:00:00 clear sky 28.650 28.650 28.650 12 1.36 m/h 0 %
14:00:00 clear sky 30.760 30.760 30.760 9 0.28 m/h 0 %
17:00:00 clear sky 31.120 31.120 31.120 8 0.64 m/h 0 %
20:00:00 clear sky 27.100 27.100 27.100 23 1.63 m/h 0 %
23:00:00 clear sky 24.910 24.910 24.910 30 1.16 m/h 0 %
27-May-2022 (Fri)
02:00:00 clear sky 23.040 23.040 23.040 32 1.99 m/h 0 %
05:00:00 clear sky 21.530 21.530 21.530 32 2.25 m/h 0 %
08:00:00 clear sky 26.050 26.050 26.050 22 1.13 m/h 0 %
11:00:00 clear sky 29.400 29.400 29.400 15 1.85 m/h 0 %
14:00:00 few clouds 30.490 30.490 30.490 18 5.06 m/h 0 %
17:00:00 broken clouds 26.840 26.840 26.840 30 1.64 m/h 0 %
20:00:00 broken clouds 25.650 25.650 25.650 36 1.01 m/h 0 %
23:00:00 light rain 21.880 21.880 21.880 46 3.74 m/h 49 %
28-May-2022 (Sat)
02:00:00 light rain 20.820 20.820 20.820 49 3.65 m/h 30 %
05:00:00 scattered clouds 19.370 19.370 19.370 52 3.6 m/h 0 %
08:00:00 overcast clouds 21.720 21.720 21.720 38 2.72 m/h 0 %
11:00:00 overcast clouds 23.960 23.960 23.960 32 2.67 m/h 0 %
14:00:00 overcast clouds 27.360 27.360 27.360 24 1.06 m/h 0 %
17:00:00 light rain 26.750 26.750 26.750 30 3.34 m/h 11 %
20:00:00 broken clouds 24.630 24.630 24.630 35 1.51 m/h 0 %
23:00:00 broken clouds 23.420 23.420 23.420 36 3.11 m/h 0 %
29-May-2022 (Sun)
02:00:00 overcast clouds 21.600 21.600 21.600 40 2.84 m/h 0 %
05:00:00 overcast clouds 20.320 20.320 20.320 43 2.79 m/h 0 %
08:00:00 broken clouds 22.660 22.660 22.660 34 0.97 m/h 0 %

Famous Cities (61)